createdAt,value
2023-01-06T00:01:31.873Z,101741.16
2023-01-06T00:03:59.530Z,101737.50
2023-01-06T00:06:29.118Z,101742.59
2023-01-06T00:08:59.856Z,101736.63
2023-01-06T00:11:27.355Z,101743.41
2023-01-06T00:13:55.454Z,101727.72
2023-01-06T00:16:23.698Z,101729.44
2023-01-06T00:18:55.637Z,101731.22
2023-01-06T00:21:23.443Z,101710.88
2023-01-06T00:23:50.897Z,101714.25
2023-01-06T00:26:18.346Z,101698.47
2023-01-06T00:28:47.820Z,101703.16
2023-01-06T00:31:17.130Z,101696.00
2023-01-06T00:33:44.830Z,101706.66
2023-01-06T00:36:14.120Z,101711.94
2023-01-06T00:38:42.877Z,101702.38
2023-01-06T00:41:30.896Z,101694.34
2023-01-06T00:43:59.790Z,101704.94
2023-01-06T00:46:29.740Z,101698.81
2023-01-06T00:49:08.177Z,101702.25
2023-01-06T00:51:37.664Z,101696.00
2023-01-06T00:54:07.133Z,101714.31
2023-01-06T00:56:43.196Z,101717.88
2023-01-06T00:59:12.957Z,101717.84
2023-01-06T01:01:41.765Z,101718.91
2023-01-06T01:04:10.260Z,101730.25
2023-01-06T01:06:38.651Z,101724.25
2023-01-06T01:09:07.097Z,101726.06
2023-01-06T01:11:53.365Z,101718.31
2023-01-06T01:14:21.629Z,101711.16
2023-01-06T01:16:49.260Z,101717.25
2023-01-06T01:19:17.934Z,101723.97
2023-01-06T01:21:46.142Z,101716.25
2023-01-06T01:24:15.303Z,101715.41
2023-01-06T01:26:43.614Z,101712.66
2023-01-06T01:29:18.794Z,101708.44
2023-01-06T01:31:47.274Z,101701.31
2023-01-06T01:34:16.869Z,101691.06
2023-01-06T01:36:46.894Z,101693.56
2023-01-06T01:39:16.031Z,101692.81
2023-01-06T01:41:44.239Z,101694.31
2023-01-06T01:44:49.320Z,101685.75
2023-01-06T01:47:51.136Z,101689.25
2023-01-06T01:50:35.164Z,101691.72
2023-01-06T01:53:10.729Z,101692.53
2023-01-06T01:55:39.274Z,101692.59
2023-01-06T01:58:13.880Z,101690.97
2023-01-06T02:00:43.763Z,101691.72
2023-01-06T02:03:12.906Z,101689.06
2023-01-06T02:05:45.915Z,101689.00
2023-01-06T02:08:26.684Z,101692.44
2023-01-06T02:10:54.330Z,101681.69
2023-01-06T02:13:21.885Z,101672.91
2023-01-06T02:15:53.434Z,101680.72
2023-01-06T02:18:41.671Z,101676.19
2023-01-06T02:21:15.130Z,101672.72
2023-01-06T02:24:08.575Z,101666.63
2023-01-06T02:26:58.668Z,101673.56
2023-01-06T02:29:57.740Z,101669.16
2023-01-06T02:32:54.125Z,101665.69
2023-01-06T02:35:30.035Z,101666.53
2023-01-06T02:38:30.088Z,101664.03
2023-01-06T02:41:20.809Z,101654.53
2023-01-06T02:44:04.786Z,101651.78
2023-01-06T02:46:50.921Z,101648.06
2023-01-06T02:49:58.528Z,101652.44
2023-01-06T02:52:53.632Z,101649.13
2023-01-06T02:55:50.008Z,101649.84
2023-01-06T02:58:26.972Z,101645.56
2023-01-06T03:01:12.000Z,101644.53
2023-01-06T03:03:44.566Z,101647.19
2023-01-06T03:06:16.079Z,101651.69
2023-01-06T03:08:46.442Z,101651.53
2023-01-06T03:11:14.529Z,101653.25
2023-01-06T03:13:50.507Z,101654.13
2023-01-06T03:16:19.529Z,101653.25
2023-01-06T03:18:49.476Z,101648.19
2023-01-06T03:21:23.197Z,101647.59
2023-01-06T03:23:51.121Z,101645.78
2023-01-06T03:26:18.563Z,101635.19
2023-01-06T03:28:47.105Z,101633.47
2023-01-06T03:32:04.146Z,101627.28
2023-01-06T03:35:05.862Z,101629.16
2023-01-06T03:37:56.261Z,101621.28
2023-01-06T03:40:48.233Z,101628.06
2023-01-06T03:43:37.280Z,101619.31
2023-01-06T03:46:07.937Z,101633.47
2023-01-06T03:49:08.769Z,101624.56
2023-01-06T03:52:11.026Z,101622.09
2023-01-06T03:54:55.350Z,101624.56
2023-01-06T03:57:27.641Z,101624.81
2023-01-06T04:00:02.074Z,101630.09
2023-01-06T04:02:30.490Z,101624.84
2023-01-06T04:05:15.012Z,101627.31
2023-01-06T04:07:45.469Z,101620.31
2023-01-06T04:10:16.761Z,101616.22
2023-01-06T04:12:45.403Z,101612.81
2023-01-06T04:15:19.736Z,101607.63
2023-01-06T04:17:49.761Z,101604.94
2023-01-06T04:20:24.501Z,101617.22
2023-01-06T04:22:57.850Z,101605.94
2023-01-06T04:25:26.534Z,101601.69
2023-01-06T04:27:54.525Z,101594.56
2023-01-06T04:30:22.485Z,101597.88
2023-01-06T04:32:49.930Z,101597.00
2023-01-06T04:35:17.485Z,101591.66
2023-01-06T04:37:45.119Z,101591.72
2023-01-06T04:40:13.002Z,101589.00
2023-01-06T04:42:58.867Z,101589.84
2023-01-06T04:45:26.546Z,101585.38
2023-01-06T04:47:54.051Z,101588.91
2023-01-06T04:50:21.592Z,101594.28
2023-01-06T04:52:49.144Z,101590.94
2023-01-06T04:55:16.903Z,101597.97
2023-01-06T04:57:44.355Z,101595.50
2023-01-06T05:00:12.486Z,101600.66
2023-01-06T05:02:40.087Z,101591.81
2023-01-06T05:05:08.116Z,101595.28
2023-01-06T05:07:35.560Z,101586.66
2023-01-06T05:10:04.371Z,101591.25
2023-01-06T05:12:32.985Z,101591.09
2023-01-06T05:15:00.776Z,101592.00
2023-01-06T05:17:28.432Z,101589.34
2023-01-06T05:19:55.978Z,101587.66
2023-01-06T05:22:23.464Z,101590.16
2023-01-06T05:24:51.021Z,101585.94
2023-01-06T05:27:18.466Z,101590.31
2023-01-06T05:29:46.019Z,101588.34
2023-01-06T05:32:13.559Z,101581.31
2023-01-06T05:34:41.070Z,101585.72
2023-01-06T05:37:08.408Z,101584.97
2023-01-06T05:39:35.783Z,101580.72
2023-01-06T05:42:03.096Z,101578.09
2023-01-06T05:44:30.440Z,101583.34
2023-01-06T05:46:57.849Z,101581.56
2023-01-06T05:49:25.264Z,101581.50
2023-01-06T05:51:52.710Z,101575.47
2023-01-06T05:54:20.188Z,101581.59
2023-01-06T05:56:47.478Z,101579.88
2023-01-06T05:59:15.206Z,101578.94
2023-01-06T06:01:42.735Z,101565.00
2023-01-06T06:04:12.411Z,101581.56
2023-01-06T06:06:39.896Z,101571.03
2023-01-06T06:09:07.314Z,101577.28
2023-01-06T06:11:34.533Z,101581.66
2023-01-06T06:14:01.864Z,101570.31
2023-01-06T06:16:29.360Z,101576.38
2023-01-06T06:18:58.905Z,101586.09
2023-01-06T06:21:28.804Z,101590.47
2023-01-06T06:23:58.702Z,101581.78
2023-01-06T06:26:26.795Z,101579.31
2023-01-06T06:28:54.854Z,101592.41
2023-01-06T06:31:28.017Z,101597.69
2023-01-06T06:33:58.152Z,101588.06
2023-01-06T06:36:26.335Z,101599.50
2023-01-06T06:38:54.916Z,101597.75
2023-01-06T06:41:23.681Z,101598.75
2023-01-06T06:43:51.930Z,101611.00
2023-01-06T06:46:20.809Z,101614.44
2023-01-06T06:48:50.215Z,101611.88
2023-01-06T06:51:21.055Z,101606.69
2023-01-06T06:53:49.112Z,101612.69
2023-01-06T06:56:18.562Z,101605.75
2023-01-06T06:58:46.696Z,101608.38
2023-01-06T07:01:19.724Z,101604.00
2023-01-06T07:03:47.786Z,101611.81
2023-01-06T07:06:19.559Z,101613.63
2023-01-06T07:08:47.982Z,101604.84
2023-01-06T07:11:15.502Z,101614.44
2023-01-06T07:13:43.377Z,101616.22
2023-01-06T07:16:11.014Z,101603.22
2023-01-06T07:18:39.311Z,101614.72
2023-01-06T07:21:07.198Z,101615.53
2023-01-06T07:23:35.146Z,101612.03
2023-01-06T07:26:03.521Z,101613.81
2023-01-06T07:28:32.527Z,101619.19
2023-01-06T07:31:00.945Z,101618.19
2023-01-06T07:33:29.478Z,101619.13
2023-01-06T07:35:57.524Z,101617.41
2023-01-06T07:38:25.474Z,101625.22
2023-01-06T07:40:53.389Z,101622.59
2023-01-06T07:43:21.070Z,101619.03
2023-01-06T07:45:49.331Z,101624.34
2023-01-06T07:48:17.747Z,101621.69
2023-01-06T07:50:45.477Z,101629.50
2023-01-06T07:53:13.420Z,101629.50
2023-01-06T07:55:40.834Z,101624.22
2023-01-06T07:58:09.306Z,101623.28
2023-01-06T08:00:37.501Z,101637.16
2023-01-06T08:03:07.034Z,101635.44
2023-01-06T08:05:43.704Z,101634.69
2023-01-06T08:08:12.028Z,101636.44
2023-01-06T08:10:41.422Z,101633.91
2023-01-06T08:13:10.147Z,101633.00
2023-01-06T08:15:38.702Z,101632.06
2023-01-06T08:18:06.500Z,101631.94
2023-01-06T08:20:34.278Z,101626.00
2023-01-06T08:23:02.763Z,101628.66
2023-01-06T08:25:30.315Z,101622.66
2023-01-06T08:28:00.073Z,101630.56
2023-01-06T08:30:28.372Z,101627.06
2023-01-06T08:33:00.025Z,101635.78
2023-01-06T08:35:28.004Z,101624.47
2023-01-06T08:37:55.837Z,101629.69
2023-01-06T08:40:23.694Z,101628.13
2023-01-06T08:42:51.086Z,101636.88
2023-01-06T08:45:18.602Z,101623.81
2023-01-06T08:47:45.870Z,101629.09
2023-01-06T08:50:16.134Z,101636.06
2023-01-06T08:52:43.789Z,101626.53
2023-01-06T08:55:11.128Z,101623.03
2023-01-06T08:57:38.521Z,101630.84
2023-01-06T09:00:06.532Z,101627.41
2023-01-06T09:02:33.956Z,101630.03
2023-01-06T09:05:02.449Z,101634.38
2023-01-06T09:07:30.146Z,101634.38
2023-01-06T09:09:57.648Z,101627.47
2023-01-06T09:12:25.231Z,101629.16
2023-01-06T09:14:52.680Z,101643.25
2023-01-06T09:17:20.132Z,101640.50
2023-01-06T09:19:47.501Z,101635.38
2023-01-06T09:22:14.959Z,101642.28
2023-01-06T09:24:42.296Z,101643.19
2023-01-06T09:27:09.633Z,101654.47
2023-01-06T09:29:36.944Z,101651.88
2023-01-06T09:32:04.899Z,101645.72
2023-01-06T09:34:32.500Z,101647.38
2023-01-06T09:37:00.127Z,101644.75
2023-01-06T09:39:27.805Z,101649.91
2023-01-06T09:42:32.224Z,101641.28
2023-01-06T09:45:16.254Z,101647.38
2023-01-06T09:47:52.437Z,101638.09
2023-01-06T09:50:32.134Z,101636.69
2023-01-06T09:53:14.041Z,101639.56
2023-01-06T09:55:48.146Z,101644.94
2023-01-06T09:58:19.092Z,101644.06
2023-01-06T10:00:49.569Z,101645.06
2023-01-06T10:03:19.950Z,101654.66
2023-01-06T10:06:25.221Z,101663.22
2023-01-06T10:09:20.828Z,101651.81
2023-01-06T10:11:48.303Z,101655.38
2023-01-06T10:14:40.887Z,101654.50
2023-01-06T10:17:42.058Z,101665.03
2023-01-06T10:20:30.679Z,101661.63
2023-01-06T10:23:23.568Z,101659.06
2023-01-06T10:25:54.790Z,101665.13
2023-01-06T10:28:32.457Z,101667.78
2023-01-06T10:31:04.430Z,101660.75
2023-01-06T10:33:37.569Z,101657.19
2023-01-06T10:36:12.796Z,101663.28
2023-01-06T10:38:46.841Z,101667.63
2023-01-06T10:41:52.113Z,101662.31
2023-01-06T10:44:20.759Z,101669.28
2023-01-06T10:46:50.247Z,101656.13
2023-01-06T10:49:19.432Z,101650.91
2023-01-06T10:51:54.909Z,101648.25
2023-01-06T10:54:27.782Z,101649.03
2023-01-06T10:57:02.680Z,101644.69
2023-01-06T10:59:30.882Z,101646.41
2023-01-06T11:01:59.055Z,101641.25
2023-01-06T11:04:28.202Z,101649.16
2023-01-06T11:07:02.155Z,101647.28
2023-01-06T11:09:32.796Z,101643.75
2023-01-06T11:12:03.249Z,101631.72
2023-01-06T11:14:33.048Z,101629.94
2023-01-06T11:17:03.659Z,101645.47
2023-01-06T11:19:42.377Z,101625.44
2023-01-06T11:22:35.843Z,101628.88
2023-01-06T11:25:32.304Z,101616.66
2023-01-06T11:28:20.576Z,101611.44
2023-01-06T11:30:52.878Z,101615.72
2023-01-06T11:33:23.430Z,101610.44
2023-01-06T11:35:52.280Z,101602.69
2023-01-06T11:38:22.259Z,101601.06
2023-01-06T11:40:51.911Z,101593.22
2023-01-06T11:43:28.302Z,101596.81
2023-01-06T11:46:00.380Z,101592.50
2023-01-06T11:48:33.584Z,101589.09
2023-01-06T11:51:03.891Z,101588.25
2023-01-06T11:53:33.712Z,101592.69
2023-01-06T11:56:03.043Z,101571.88
2023-01-06T11:58:53.091Z,101590.41
2023-01-06T12:01:57.373Z,101583.41
2023-01-06T12:04:41.440Z,101576.41
2023-01-06T12:07:28.865Z,101574.72
2023-01-06T12:10:01.915Z,101574.66
2023-01-06T12:12:35.423Z,101566.84
2023-01-06T12:15:03.688Z,101569.34
2023-01-06T12:17:40.733Z,101563.19
2023-01-06T12:20:15.303Z,101557.91
2023-01-06T12:22:57.781Z,101556.00
2023-01-06T12:25:29.807Z,101561.31
2023-01-06T12:28:02.099Z,101547.28
2023-01-06T12:30:34.659Z,101558.59
2023-01-06T12:33:10.956Z,101560.28
2023-01-06T12:35:42.420Z,101560.97
2023-01-06T12:38:25.347Z,101540.16
2023-01-06T12:41:01.277Z,101540.22
2023-01-06T12:43:31.753Z,101547.06
2023-01-06T12:46:11.424Z,101532.19
2023-01-06T12:48:48.218Z,101532.34
2023-01-06T12:51:15.798Z,101532.38
2023-01-06T12:53:56.460Z,101525.44
2023-01-06T12:57:05.121Z,101518.56
2023-01-06T12:59:50.889Z,101515.03
2023-01-06T13:02:55.721Z,101509.88
2023-01-06T13:05:49.295Z,101510.78
2023-01-06T13:08:52.806Z,101514.25
2023-01-06T13:11:26.456Z,101506.38
2023-01-06T13:13:54.157Z,101497.56
2023-01-06T13:16:43.306Z,101493.28
2023-01-06T13:19:39.518Z,101493.28
2023-01-06T13:22:11.695Z,101492.41
2023-01-06T13:25:04.385Z,101501.13
2023-01-06T13:27:58.361Z,101500.25
2023-01-06T13:30:36.290Z,101484.53
2023-01-06T13:33:45.325Z,101478.38
2023-01-06T13:36:34.590Z,101483.63
2023-01-06T13:39:14.012Z,101476.72
2023-01-06T13:41:45.958Z,101474.13
2023-01-06T13:44:18.481Z,101481.94
2023-01-06T13:46:48.222Z,101475.75
2023-01-06T13:49:16.107Z,101467.00
2023-01-06T13:51:44.701Z,101460.84
2023-01-06T13:54:40.093Z,101466.06
2023-01-06T13:57:22.735Z,101466.06
2023-01-06T14:00:14.225Z,101456.44
2023-01-06T14:02:43.125Z,101455.56
2023-01-06T14:05:22.683Z,101458.00
2023-01-06T14:07:54.331Z,101460.59
2023-01-06T14:10:43.415Z,101445.63
2023-01-06T14:13:33.002Z,101437.69
2023-01-06T14:16:11.035Z,101449.00
2023-01-06T14:18:47.392Z,101435.03
2023-01-06T14:21:14.820Z,101431.53
2023-01-06T14:24:00.930Z,101435.06
2023-01-06T14:27:02.598Z,101419.28
2023-01-06T14:29:42.441Z,101420.06
2023-01-06T14:32:34.891Z,101426.16
2023-01-06T14:35:12.388Z,101415.72
2023-01-06T14:37:53.134Z,101426.25
2023-01-06T14:40:25.812Z,101424.53
2023-01-06T14:42:55.574Z,101411.44
2023-01-06T14:45:29.561Z,101425.41
2023-01-06T14:48:04.119Z,101414.03
2023-01-06T14:50:46.521Z,101421.03
2023-01-06T14:53:36.096Z,101418.34
2023-01-06T14:56:05.171Z,101414.06
2023-01-06T14:58:42.443Z,101406.16
2023-01-06T15:01:32.679Z,101414.03
2023-01-06T15:04:03.197Z,101410.56
2023-01-06T15:06:32.203Z,101403.56
2023-01-06T15:09:20.547Z,101405.22
2023-01-06T15:11:48.517Z,101403.56
2023-01-06T15:14:33.381Z,101397.31
2023-01-06T15:17:04.957Z,101401.72
2023-01-06T15:19:34.596Z,101398.22
2023-01-06T15:22:07.818Z,101390.28
2023-01-06T15:24:39.575Z,101393.78
2023-01-06T15:27:11.412Z,101385.09
2023-01-06T15:29:39.017Z,101392.19
2023-01-06T15:32:13.213Z,101389.56
2023-01-06T15:34:46.549Z,101392.22
2023-01-06T15:37:24.947Z,101393.13
2023-01-06T15:39:53.684Z,101385.25
2023-01-06T15:42:26.006Z,101387.88
2023-01-06T15:45:00.450Z,101379.16
2023-01-06T15:47:40.940Z,101378.22
2023-01-06T15:50:16.288Z,101375.56
2023-01-06T15:52:53.776Z,101372.09
2023-01-06T15:55:28.759Z,101369.50
2023-01-06T15:58:07.196Z,101376.41
2023-01-06T16:00:42.178Z,101378.97
2023-01-06T16:03:21.883Z,101382.47
2023-01-06T16:05:57.701Z,101368.63
2023-01-06T16:08:30.730Z,101373.72
2023-01-06T16:11:16.318Z,101372.78
2023-01-06T16:13:58.420Z,101377.13
2023-01-06T16:16:32.551Z,101371.06
2023-01-06T16:19:19.343Z,101379.66
2023-01-06T16:21:50.947Z,101370.06
2023-01-06T16:24:26.756Z,101373.53
2023-01-06T16:27:06.061Z,101372.59
2023-01-06T16:29:37.475Z,101368.25
2023-01-06T16:32:31.082Z,101364.66
2023-01-06T16:35:03.135Z,101357.72
2023-01-06T16:37:34.477Z,101369.06
2023-01-06T16:40:02.156Z,101372.56
2023-01-06T16:42:40.289Z,101355.97
2023-01-06T16:45:31.717Z,101362.00
2023-01-06T16:47:59.310Z,101355.88
2023-01-06T16:50:26.775Z,101362.84
2023-01-06T16:53:21.377Z,101362.09
2023-01-06T16:55:55.330Z,101355.81
2023-01-06T16:58:26.593Z,101354.91
2023-01-06T17:00:56.572Z,101359.38
2023-01-06T17:03:35.081Z,101354.22
2023-01-06T17:06:02.734Z,101344.59
2023-01-06T17:08:32.602Z,101350.59
2023-01-06T17:11:01.931Z,101342.75
2023-01-06T17:13:35.854Z,101344.56
2023-01-06T17:16:17.880Z,101347.13
2023-01-06T17:18:56.333Z,101342.72
2023-01-06T17:21:34.952Z,101346.22
2023-01-06T17:24:08.507Z,101344.41
2023-01-06T17:26:36.424Z,101358.47
2023-01-06T17:29:15.117Z,101353.16
2023-01-06T17:31:50.672Z,101350.56
2023-01-06T17:34:19.465Z,101348.72
2023-01-06T17:36:49.086Z,101348.72
2023-01-06T17:39:32.753Z,101354.75
2023-01-06T17:42:12.575Z,101356.63
2023-01-06T17:44:54.477Z,101354.81
2023-01-06T17:47:26.720Z,101355.69
2023-01-06T17:49:59.490Z,101351.25
2023-01-06T17:52:35.864Z,101340.09
2023-01-06T17:55:44.937Z,101333.16
2023-01-06T17:58:19.551Z,101334.88
2023-01-06T18:00:47.118Z,101336.59
2023-01-06T18:03:24.924Z,101334.03
2023-01-06T18:06:01.347Z,101334.84
2023-01-06T18:08:32.355Z,101343.53
2023-01-06T18:11:27.516Z,101337.41
2023-01-06T18:13:55.669Z,101333.94
2023-01-06T18:16:29.597Z,101342.69
2023-01-06T18:19:37.379Z,101340.06
2023-01-06T18:22:22.917Z,101334.81
2023-01-06T18:24:52.894Z,101333.03
2023-01-06T18:27:26.255Z,101323.47
2023-01-06T18:30:00.425Z,101340.97
2023-01-06T18:32:31.684Z,101327.84
2023-01-06T18:35:09.434Z,101341.84
2023-01-06T18:37:37.206Z,101340.09
2023-01-06T18:40:08.397Z,101333.22
2023-01-06T18:42:37.161Z,101340.13
2023-01-06T18:45:22.831Z,101340.91
2023-01-06T18:47:56.958Z,101324.41
2023-01-06T18:50:27.339Z,101333.06
2023-01-06T18:53:05.586Z,101328.81
2023-01-06T18:55:37.301Z,101322.66
2023-01-06T18:58:26.684Z,101323.50
2023-01-06T19:00:57.344Z,101326.13
2023-01-06T19:03:54.104Z,101322.66
2023-01-06T19:06:24.541Z,101334.88
2023-01-06T19:08:52.483Z,101323.47
2023-01-06T19:11:23.063Z,101326.97
2023-01-06T19:13:54.543Z,101318.25
2023-01-06T19:16:35.741Z,101315.66
2023-01-06T19:19:16.351Z,101323.56
2023-01-06T19:21:44.075Z,101317.44
2023-01-06T19:24:38.398Z,101323.53
2023-01-06T19:27:24.522Z,101316.69
2023-01-06T19:29:54.750Z,101314.06
2023-01-06T19:32:25.608Z,101305.34
2023-01-06T19:34:55.899Z,101307.97
2023-01-06T19:37:23.329Z,101301.81
2023-01-06T19:39:57.022Z,101307.06
2023-01-06T19:42:29.668Z,101297.47
2023-01-06T19:45:00.470Z,101298.31
2023-01-06T19:47:31.772Z,101298.31
2023-01-06T19:50:16.062Z,101300.97
2023-01-06T19:52:43.719Z,101304.53
2023-01-06T19:55:14.125Z,101293.16
2023-01-06T19:57:46.175Z,101291.38
2023-01-06T20:00:23.601Z,101296.56
2023-01-06T20:02:52.859Z,101288.91
2023-01-06T20:05:20.317Z,101295.91
2023-01-06T20:07:47.926Z,101290.66
2023-01-06T20:10:15.419Z,101291.41
2023-01-06T20:12:44.794Z,101296.66
2023-01-06T20:15:13.611Z,101287.06
2023-01-06T20:17:41.214Z,101291.47
2023-01-06T20:20:09.519Z,101289.66
2023-01-06T20:22:37.139Z,101284.53
2023-01-06T20:25:04.809Z,101287.06
2023-01-06T20:27:32.241Z,101280.06
2023-01-06T20:29:59.456Z,101278.34
2023-01-06T20:32:26.984Z,101275.72
2023-01-06T20:34:54.428Z,101273.09
2023-01-06T20:37:22.069Z,101267.94
2023-01-06T20:39:50.147Z,101276.69
2023-01-06T20:42:17.639Z,101262.63
2023-01-06T20:44:45.023Z,101266.13
2023-01-06T20:47:12.402Z,101263.50
2023-01-06T20:49:39.824Z,101258.34
2023-01-06T20:52:07.335Z,101259.13
2023-01-06T20:54:34.802Z,101259.19
2023-01-06T20:57:02.268Z,101247.78
2023-01-06T20:59:29.507Z,101247.75
2023-01-06T21:01:57.373Z,101239.03
2023-01-06T21:04:24.982Z,101252.13
2023-01-06T21:06:52.584Z,101242.53
2023-01-06T21:09:20.036Z,101243.38
2023-01-06T21:11:47.556Z,101246.03
2023-01-06T21:14:15.059Z,101239.97
2023-01-06T21:16:42.641Z,101239.84
2023-01-06T21:19:10.184Z,101237.22
2023-01-06T21:21:37.815Z,101226.75
2023-01-06T21:24:05.502Z,101229.38
2023-01-06T21:26:32.964Z,101219.78
2023-01-06T21:29:00.203Z,101216.31
2023-01-06T21:31:27.603Z,101218.94
2023-01-06T21:33:54.880Z,101226.78
2023-01-06T21:36:22.382Z,101223.25
2023-01-06T21:38:49.908Z,101219.78
2023-01-06T21:41:35.876Z,101213.63
2023-01-06T21:44:03.422Z,101214.50
2023-01-06T21:46:32.224Z,101210.16
2023-01-06T21:48:59.880Z,101203.13
2023-01-06T21:51:27.722Z,101204.88
2023-01-06T21:53:55.408Z,101188.34
2023-01-06T21:56:22.969Z,101199.72
2023-01-06T21:58:50.554Z,101197.06
2023-01-06T22:01:19.204Z,101196.25
2023-01-06T22:03:46.841Z,101185.75
2023-01-06T22:06:16.023Z,101183.00
2023-01-06T22:08:43.501Z,101177.84
2023-01-06T22:11:11.400Z,101179.59
2023-01-06T22:13:40.751Z,101176.09
2023-01-06T22:16:09.183Z,101165.59
2023-01-06T22:18:36.816Z,101166.47
2023-01-06T22:21:05.115Z,101142.81
2023-01-06T22:23:33.560Z,101135.03
2023-01-06T22:26:00.968Z,101129.72
2023-01-06T22:28:28.532Z,101120.09
2023-01-06T22:30:56.079Z,101106.09
2023-01-06T22:33:23.977Z,101108.72
2023-01-06T22:35:51.648Z,101117.41
2023-01-06T22:38:19.217Z,101104.19
2023-01-06T22:40:46.784Z,101109.47
2023-01-06T22:43:14.536Z,101111.19
2023-01-06T22:45:41.966Z,101116.34
2023-01-06T22:48:09.578Z,101117.25
2023-01-06T22:50:38.702Z,101111.91
2023-01-06T22:53:06.288Z,101110.16
2023-01-06T22:55:33.709Z,101104.16
2023-01-06T22:58:01.316Z,101098.88
2023-01-06T23:00:28.813Z,101097.19
2023-01-06T23:02:57.851Z,101090.22
2023-01-06T23:05:25.357Z,101088.50
2023-01-06T23:07:52.778Z,101087.56
2023-01-06T23:10:20.004Z,101081.38
2023-01-06T23:12:47.364Z,101084.13
2023-01-06T23:15:14.641Z,101079.72
2023-01-06T23:17:42.163Z,101073.59
2023-01-06T23:20:10.234Z,101072.75
2023-01-06T23:22:37.827Z,101068.41
2023-01-06T23:25:05.793Z,101064.00
2023-01-06T23:27:33.259Z,101059.66
2023-01-06T23:30:00.684Z,101057.94
2023-01-06T23:32:28.149Z,101057.97
2023-01-06T23:34:55.598Z,101050.06
2023-01-06T23:37:23.149Z,101051.72
2023-01-06T23:39:50.602Z,101054.34
2023-01-06T23:42:18.172Z,101050.84
2023-01-06T23:44:45.573Z,101039.41
2023-01-06T23:47:13.151Z,101043.84
2023-01-06T23:49:40.579Z,101035.97
2023-01-06T23:52:08.074Z,101029.88
2023-01-06T23:54:35.364Z,101029.00
2023-01-06T23:57:02.732Z,101026.41
2023-01-06T23:59:29.966Z,101023.78
